Terminal Aerodrome Forecast
Issued by NWS Amarillo, TX

Home | Current Version | Previous Version | Text Only | Print | Product List | Glossary On
Versions: 1 2 3 4 5 6 7 8 9 10 11 12 13
000
FTUS44 KAMA 210500
TAFGUY
TAF
KGUY 210520Z 2106/2206 36005KT 6SM BR SCT025 BKN050
     FM211400 06012G20KT P6SM VCSH SCT025 BKN050
     FM212200 10010KT P6SM BKN050=

USA.gov is the U.S. government's official web portal to all federal, state and local government web resources and services.